Westminster, Texas
Current Conditions -  °F | °C
As of 1:53 PM on Friday 24 Oct 2014 (Local Time) from KTKI Reporting Station
Clear Clear  
Wind Chill: 78°   Ceiling: Unl
Heat Index: 79°   Visibility: 10mi
Dew Point: 58°   Wind: 10mph
Humidity: 50%   Direction: 160°SSE
Pressure: 30.11"   Gusts: NA
Location:  33.36°N, 96.46°W
Report Text: KTKI 241853Z 16009KT 10SM CLR 26/14 A3011 RMK AO2 SLP196 T02560144
Loading
Personal Weather Stations






























Interactive Weather Map
Tropical Storm Tracking
New forecast layout! Learn more

10-Day Weather Forecast

Advertisements
Track Severe Weather on mobile